Time;durP1;ratioP1;P1;durP2;ratioP2;P2;SDS_P1;SDS_P2;PMS_P1;PMS_P2;Temp;Humidity;BMP_temperature;BMP_pressure;BME280_temperature;BME280_humidity;BME280_pressure;Samples;Min_cycle;Max_cycle;Signal;HPM_P1;HPM_P2
2022/08/10 00:01:40;;;;;;;0.38;0.38;;;24.00;57.80;;;;;;4938329;29;20083;-68
2022/08/10 00:04:06;;;;;;;0.00;0.00;;;24.00;58.00;;;;;;4954835;29;20479;-68
2022/08/10 00:06:32;;;;;;;0.20;0.20;;;23.90;58.00;;;;;;4955521;29;20067;-67
2022/08/10 00:08:58;;;;;;;0.03;0.03;;;23.90;58.00;;;;;;4953730;29;20089;-68
2022/08/10 00:11:24;;;;;;;0.45;0.30;;;23.90;58.20;;;;;;4937853;29;20031;-67
2022/08/10 00:13:50;;;;;;;0.00;0.00;;;23.90;58.30;;;;;;4954851;29;20042;-68
2022/08/10 00:16:17;;;;;;;0.30;0.30;;;23.80;58.20;;;;;;4940427;29;20019;-67
2022/08/10 00:18:43;;;;;;;0.50;0.30;;;23.90;58.40;;;;;;4952806;29;20083;-68
2022/08/10 00:21:09;;;;;;;0.00;0.00;;;23.90;58.60;;;;;;4937804;29;20031;-68
2022/08/10 00:23:37;;;;;;;0.10;0.10;;;23.90;58.50;;;;;;4954566;29;20432;-68
2022/08/10 00:26:04;;;;;;;0.15;0.13;;;23.90;58.70;;;;;;4954698;29;20051;-68
2022/08/10 00:28:30;;;;;;;1.90;0.28;;;23.80;58.60;;;;;;4954823;29;20028;-68
2022/08/10 00:30:56;;;;;;;0.10;0.10;;;23.80;58.60;;;;;;4937500;29;20066;-68
2022/08/10 00:33:22;;;;;;;0.90;0.60;;;23.80;58.90;;;;;;4954501;29;20058;-68
2022/08/10 00:35:48;;;;;;;0.03;0.03;;;23.70;59.00;;;;;;4937642;29;20118;-67
2022/08/10 00:38:13;;;;;;;0.28;0.15;;;23.70;59.10;;;;;;4937826;29;20431;-68
2022/08/10 00:40:39;;;;;;;0.10;0.10;;;23.70;59.20;;;;;;4953922;28;20463;-68
2022/08/10 00:43:06;;;;;;;0.20;0.17;;;23.70;59.20;;;;;;4953815;29;20039;-68
2022/08/10 00:45:32;;;;;;;12.35;1.02;;;23.70;59.10;;;;;;4937445;29;20074;-67
2022/08/10 00:47:58;;;;;;;0.30;0.30;;;23.80;59.10;;;;;;4954159;29;20035;-68
2022/08/10 00:50:24;;;;;;;0.08;0.08;;;23.80;59.30;;;;;;4937031;29;20373;-68
2022/08/10 00:52:50;;;;;;;0.00;0.00;;;23.80;59.20;;;;;;4937025;29;20082;-68
2022/08/10 00:55:17;;;;;;;0.00;0.00;;;23.80;59.30;;;;;;4954328;29;20027;-68
2022/08/10 00:57:45;;;;;;;0.22;0.20;;;23.70;59.10;;;;;;4954308;29;20035;-68
2022/08/10 01:00:11;;;;;;;0.40;0.38;;;23.60;59.30;;;;;;4936731;29;20082;-68
2022/08/10 01:02:37;;;;;;;0.20;0.10;;;23.50;59.60;;;;;;4953430;29;20035;-68
2022/08/10 01:05:08;;;;;;;0.13;0.13;;;23.40;59.70;;;;;;4920359;29;20045;-67
2022/08/10 01:08:01;;;;;;;0.10;0.10;;;23.40;59.90;;;;;;4964802;28;20487;-67
2022/08/10 01:11:07;;;;;;;1.88;1.15;;;23.40;60.10;;;;;;4951031;29;20083;-67
2022/08/10 01:13:46;;;;;;;0.45;0.17;;;23.40;60.10;;;;;;4934586;29;20400;-68
2022/08/10 01:16:52;;;;;;;0.00;0.00;;;23.40;60.90;;;;;;4930159;29;20395;-67
2022/08/10 01:19:54;;;;;;;0.55;0.28;;;23.40;60.60;;;;;;4953431;29;20482;-67
2022/08/10 01:22:30;;;;;;;0.40;0.40;;;23.30;60.80;;;;;;4937519;29;20031;-68
2022/08/10 01:25:33;;;;;;;0.00;0.00;;;23.30;60.90;;;;;;4953540;29;20031;-68
2022/08/10 01:28:25;;;;;;;0.03;0.03;;;23.30;61.00;;;;;;4953565;28;20551;-68
2022/08/10 01:30:55;;;;;;;0.22;0.22;;;23.30;61.10;;;;;;4952726;29;20122;-68
2022/08/10 01:33:46;;;;;;;0.00;0.00;;;23.30;60.90;;;;;;4951861;29;20031;-68
2022/08/10 01:36:18;;;;;;;0.00;0.00;;;23.20;60.80;;;;;;4953920;28;20033;-67
2022/08/10 01:38:48;;;;;;;0.10;0.10;;;23.20;60.90;;;;;;4952152;29;20038;-68
2022/08/10 01:41:29;;;;;;;0.00;0.00;;;23.10;61.10;;;;;;4948613;29;20063;-68
2022/08/10 01:44:10;;;;;;;0.82;0.50;;;23.10;61.20;;;;;;4936236;29;20502;-68
2022/08/10 01:46:41;;;;;;;0.35;0.20;;;23.10;61.50;;;;;;4936684;29;20474;-68
2022/08/10 01:49:10;;;;;;;0.25;0.25;;;23.00;61.30;;;;;;4936397;29;20472;-68
2022/08/10 01:51:44;;;;;;;0.00;0.00;;;23.00;61.40;;;;;;4936563;29;20543;-68
2022/08/10 01:54:19;;;;;;;0.20;0.20;;;22.90;61.60;;;;;;4936119;29;20530;-67
2022/08/10 01:56:51;;;;;;;0.93;0.47;;;22.80;61.80;;;;;;4953307;29;20039;-67
2022/08/10 01:59:32;;;;;;;0.28;0.20;;;22.80;61.80;;;;;;4953097;29;20027;-68
2022/08/10 02:02:03;;;;;;;0.32;0.10;;;22.70;61.80;;;;;;4953162;29;20027;-67
2022/08/10 02:04:33;;;;;;;0.50;0.40;;;22.50;62.50;;;;;;4935982;29;20035;-67
2022/08/10 02:07:01;;;;;;;0.10;0.10;;;22.60;62.50;;;;;;4936455;29;20122;-67
2022/08/10 02:09:35;;;;;;;0.10;0.10;;;22.60;62.90;;;;;;4935291;29;20054;-68
2022/08/10 02:12:14;;;;;;;0.00;0.00;;;22.50;62.40;;;;;;4936616;29;20035;-68
2022/08/10 02:14:50;;;;;;;0.10;0.10;;;22.60;62.60;;;;;;4937148;29;20388;-68
2022/08/10 02:17:25;;;;;;;0.10;0.10;;;22.60;62.70;;;;;;4953166;28;20035;-67
2022/08/10 02:19:55;;;;;;;0.13;0.13;;;22.60;62.70;;;;;;4935835;29;20077;-67
2022/08/10 02:22:23;;;;;;;0.25;0.20;;;22.60;62.90;;;;;;4935680;29;20031;-67
2022/08/10 02:24:50;;;;;;;0.00;0.00;;;22.70;62.90;;;;;;4935969;29;20024;-67
2022/08/10 02:27:20;;;;;;;0.15;0.13;;;22.60;62.60;;;;;;4936006;29;20057;-67
2022/08/10 02:29:47;;;;;;;0.40;0.30;;;22.60;62.90;;;;;;4935871;29;20110;-67
2022/08/10 02:32:13;;;;;;;0.00;0.00;;;22.60;62.90;;;;;;4952681;29;20030;-67
2022/08/10 02:34:40;;;;;;;0.70;0.55;;;22.20;63.10;;;;;;4935631;29;20391;-67
2022/08/10 02:37:08;;;;;;;0.00;0.00;;;22.00;63.60;;;;;;4953198;29;20114;-68
2022/08/10 02:39:35;;;;;;;0.22;0.17;;;22.00;64.00;;;;;;4935313;29;20035;-67
2022/08/10 02:42:27;;;;;;;0.10;0.10;;;22.00;64.00;;;;;;4935600;29;20535;-68
2022/08/10 02:45:10;;;;;;;0.05;0.05;;;22.10;64.10;;;;;;4936571;29;20150;-68
2022/08/10 02:47:44;;;;;;;0.00;0.00;;;21.90;64.00;;;;;;4937489;29;20047;-68
2022/08/10 02:50:24;;;;;;;0.00;0.00;;;21.80;64.50;;;;;;4935631;29;20031;-68
2022/08/10 02:52:59;;;;;;;0.10;0.10;;;21.70;65.00;;;;;;4935592;29;20031;-68
2022/08/10 02:55:43;;;;;;;0.10;0.10;;;21.50;65.10;;;;;;4936121;29;20050;-68
2022/08/10 02:58:15;;;;;;;0.30;0.15;;;21.50;65.00;;;;;;4952772;29;20027;-68
2022/08/10 03:00:46;;;;;;;0.00;0.00;;;21.40;65.40;;;;;;4935545;29;20039;-68
2022/08/10 03:03:25;;;;;;;0.95;0.25;;;21.40;65.70;;;;;;4935321;29;20039;-67
2022/08/10 03:05:59;;;;;;;0.15;0.15;;;21.50;65.70;;;;;;4955430;28;20107;-67
2022/08/10 03:08:32;;;;;;;0.20;0.20;;;21.60;65.40;;;;;;4939184;29;20082;-68
2022/08/10 03:11:02;;;;;;;0.28;0.28;;;21.60;65.30;;;;;;4938884;29;20395;-68
2022/08/10 03:13:31;;;;;;;0.00;0.00;;;21.50;66.30;;;;;;4955928;29;20035;-67
2022/08/10 03:16:00;;;;;;;0.47;0.35;;;21.50;66.00;;;;;;4939012;29;20086;-68
2022/08/10 03:18:26;;;;;;;0.00;0.00;;;21.60;65.70;;;;;;4938906;29;20047;-67
2022/08/10 03:20:54;;;;;;;0.00;0.00;;;21.70;65.70;;;;;;4922566;29;20452;-67
2022/08/10 03:23:23;;;;;;;0.00;0.00;;;21.80;65.50;;;;;;4938548;29;20050;-68
2022/08/10 03:25:54;;;;;;;0.00;0.00;;;21.90;65.50;;;;;;4939262;29;20035;-68
2022/08/10 03:28:23;;;;;;;0.98;0.90;;;21.80;65.30;;;;;;4955799;29;20035;-67
2022/08/10 03:30:50;;;;;;;0.00;0.00;;;21.80;65.80;;;;;;4955666;29;20030;-68
2022/08/10 03:33:16;;;;;;;0.38;0.38;;;21.90;65.70;;;;;;4955193;29;20518;-68
2022/08/10 03:35:42;;;;;;;5.05;0.98;;;21.80;65.60;;;;;;4938993;29;20034;-68
2022/08/10 03:38:08;;;;;;;1.65;1.00;;;21.90;65.60;;;;;;4938647;29;20451;-68
2022/08/10 03:40:35;;;;;;;0.00;0.00;;;21.80;65.80;;;;;;4955295;29;20097;-68
2022/08/10 03:43:05;;;;;;;0.52;0.35;;;21.80;66.00;;;;;;4937898;29;20035;-68
2022/08/10 03:45:33;;;;;;;0.00;0.00;;;21.70;65.90;;;;;;4938475;29;20551;-69
2022/08/10 03:48:01;;;;;;;4.40;0.95;;;21.50;66.40;;;;;;4938633;29;20094;-68
2022/08/10 03:50:29;;;;;;;0.57;0.43;;;21.30;66.70;;;;;;4954815;29;20030;-68
2022/08/10 03:52:56;;;;;;;0.10;0.10;;;21.40;66.90;;;;;;4922098;29;20459;-68
2022/08/10 03:55:23;;;;;;;0.10;0.10;;;21.10;67.20;;;;;;4929364;28;20044;-67
2022/08/10 03:57:49;;;;;;;0.77;0.22;;;21.20;67.70;;;;;;4974617;28;20038;-69
2022/08/10 04:00:18;;;;;;;2.78;0.57;;;21.30;67.40;;;;;;4973948;28;20038;-67
2022/08/10 04:02:51;;;;;;;0.10;0.10;;;21.30;67.30;;;;;;4929394;28;20039;-66
2022/08/10 04:05:17;;;;;;;0.10;0.10;;;21.30;67.50;;;;;;4972805;28;20043;-67
2022/08/10 04:07:43;;;;;;;0.25;0.25;;;21.20;67.60;;;;;;4957013;28;20041;-66
2022/08/10 04:10:10;;;;;;;0.43;0.40;;;21.10;68.00;;;;;;4956532;28;20078;-66
2022/08/10 04:12:36;;;;;;;0.57;0.45;;;21.10;68.30;;;;;;4973929;28;20038;-67
2022/08/10 04:15:02;;;;;;;0.10;0.05;;;21.00;68.50;;;;;;4952979;29;20024;-68
2022/08/10 04:17:28;;;;;;;0.38;0.30;;;20.90;68.90;;;;;;4962187;28;20054;-67
2022/08/10 04:19:56;;;;;;;0.08;0.08;;;20.70;69.20;;;;;;4955533;28;20047;-68
2022/08/10 04:22:26;;;;;;;0.35;0.20;;;20.70;69.50;;;;;;4953232;29;20038;-68
2022/08/10 04:25:02;;;;;;;0.10;0.10;;;20.60;69.70;;;;;;4953103;29;20063;-67
2022/08/10 04:27:28;;;;;;;0.30;0.20;;;20.60;69.80;;;;;;4969220;28;20114;-68
2022/08/10 04:29:55;;;;;;;0.10;0.10;;;20.50;70.20;;;;;;4952706;29;20031;-68
2022/08/10 04:32:22;;;;;;;0.47;0.30;;;20.30;70.40;;;;;;4952750;29;20031;-67
2022/08/10 04:34:50;;;;;;;0.10;0.10;;;20.20;70.90;;;;;;4953044;29;20035;-68
2022/08/10 04:37:19;;;;;;;0.30;0.30;;;20.10;71.20;;;;;;4952991;29;20034;-67
2022/08/10 04:39:45;;;;;;;3.65;2.15;;;20.00;71.40;;;;;;4954025;29;20496;-67
2022/08/10 04:42:11;;;;;;;0.00;0.00;;;20.00;71.70;;;;;;4952504;29;20035;-65
2022/08/10 04:44:37;;;;;;;0.05;0.05;;;20.00;71.60;;;;;;4954961;29;20490;-65
2022/08/10 04:47:04;;;;;;;0.30;0.28;;;19.90;72.00;;;;;;4958118;28;20479;-65
2022/08/10 04:49:29;;;;;;;0.85;0.45;;;20.00;72.10;;;;;;4972839;28;20027;-64
2022/08/10 04:51:55;;;;;;;2.13;1.13;;;19.80;72.40;;;;;;4956442;28;20041;-65
2022/08/10 04:54:21;;;;;;;0.00;0.00;;;19.80;72.50;;;;;;4973315;28;20066;-65
2022/08/10 04:56:46;;;;;;;2.55;0.68;;;19.70;72.90;;;;;;4973193;28;20121;-65
2022/08/10 04:59:12;;;;;;;0.40;0.32;;;19.70;73.10;;;;;;4972743;28;20031;-69
2022/08/10 05:01:39;;;;;;;0.20;0.20;;;19.60;73.20;;;;;;4939911;28;20118;-70
2022/08/10 05:04:05;;;;;;;0.10;0.10;;;19.50;73.50;;;;;;4971971;28;20042;-70
2022/08/10 05:06:31;;;;;;;0.25;0.25;;;19.50;73.90;;;;;;4971970;28;20035;-70
2022/08/10 05:08:58;;;;;;;0.10;0.10;;;19.60;73.80;;;;;;4973010;28;20023;-70
2022/08/10 05:11:24;;;;;;;0.10;0.10;;;19.60;73.80;;;;;;4973406;28;20039;-70
2022/08/10 05:13:50;;;;;;;0.00;0.00;;;19.70;73.70;;;;;;4955961;28;20122;-70
2022/08/10 05:16:16;;;;;;;0.55;0.52;;;19.80;73.80;;;;;;4958822;28;20111;-70
2022/08/10 05:18:41;;;;;;;0.75;0.65;;;19.90;73.60;;;;;;4953959;28;20447;-70
2022/08/10 05:21:07;;;;;;;0.20;0.10;;;19.90;72.80;;;;;;4955990;28;20039;-70
2022/08/10 05:23:33;;;;;;;7.55;0.88;;;20.00;73.00;;;;;;4955684;28;20038;-70
2022/08/10 05:25:58;;;;;;;0.38;0.38;;;20.20;72.40;;;;;;4972757;28;20483;-70
2022/08/10 05:28:24;;;;;;;0.20;0.20;;;20.40;71.50;;;;;;4972740;28;20034;-70
2022/08/10 05:30:50;;;;;;;0.20;0.20;;;20.50;71.40;;;;;;4972621;28;20380;-70
2022/08/10 05:33:16;;;;;;;0.20;0.20;;;20.70;71.00;;;;;;4972478;28;20027;-71
2022/08/10 05:35:42;;;;;;;0.00;0.00;;;20.80;71.00;;;;;;4972903;28;20038;-70
2022/08/10 05:38:09;;;;;;;0.15;0.15;;;20.80;70.70;;;;;;4972527;28;20050;-70
2022/08/10 05:40:39;;;;;;;0.30;0.28;;;20.90;70.50;;;;;;4939565;28;20034;-70
2022/08/10 05:43:06;;;;;;;8.32;2.90;;;21.00;70.40;;;;;;4954894;28;20070;-74
2022/08/10 05:45:32;;;;;;;0.20;0.20;;;21.10;69.80;;;;;;4955587;28;20110;-73
2022/08/10 05:47:58;;;;;;;0.00;0.00;;;21.20;69.90;;;;;;4952290;28;20050;-74
2022/08/10 05:50:29;;;;;;;0.35;0.35;;;21.20;69.20;;;;;;4935310;29;20109;-73
2022/08/10 05:52:56;;;;;;;0.30;0.22;;;21.30;69.70;;;;;;4953240;29;20035;-73
2022/08/10 05:55:23;;;;;;;0.13;0.13;;;21.50;69.80;;;;;;4935933;29;20031;-73
2022/08/10 05:57:50;;;;;;;0.77;0.63;;;21.50;68.90;;;;;;4935964;29;20027;-73
2022/08/10 06:00:20;;;;;;;0.28;0.15;;;21.60;68.60;;;;;;4935831;29;20476;-73
2022/08/10 06:02:56;;;;;;;0.15;0.15;;;21.70;68.60;;;;;;4951982;29;20039;-73
2022/08/10 06:05:25;;;;;;;0.43;0.20;;;21.80;68.50;;;;;;4936647;29;20387;-73
2022/08/10 06:08:08;;;;;;;0.15;0.15;;;21.80;68.80;;;;;;4953417;29;20031;-73
2022/08/10 06:10:36;;;;;;;0.00;0.00;;;21.90;68.10;;;;;;4952841;29;20023;-73
2022/08/10 06:15:56;;;;;;;0.30;0.20;;;21.90;68.10;;;;;;4953113;29;20027;-73
2022/08/10 06:18:23;;;;;;;7.88;0.40;;;22.10;68.20;;;;;;4925704;28;20054;-73
2022/08/10 06:20:51;;;;;;;0.22;0.22;;;22.30;67.70;;;;;;4948887;28;20067;-72
2022/08/10 06:23:17;;;;;;;0.17;0.17;;;22.40;67.30;;;;;;4952370;29;20118;-73
2022/08/10 06:25:43;;;;;;;0.05;0.05;;;22.60;67.20;;;;;;4918170;28;20039;-73
2022/08/10 06:28:15;;;;;;;0.85;0.70;;;22.70;66.90;;;;;;4970670;28;20162;-73
2022/08/10 06:30:42;;;;;;;0.63;0.32;;;22.70;67.20;;;;;;4933527;28;20554;-73
2022/08/10 06:33:10;;;;;;;0.10;0.10;;;22.80;67.00;;;;;;4941900;28;20062;-73
2022/08/10 06:35:37;;;;;;;3.72;0.75;;;22.90;67.10;;;;;;4952630;29;20062;-73
2022/08/10 06:38:04;;;;;;;3.38;1.05;;;22.90;66.70;;;;;;4954162;28;20031;-73
2022/08/10 06:40:38;;;;;;;0.35;0.35;;;23.00;67.10;;;;;;4951112;28;20031;-73
2022/08/10 06:43:09;;;;;;;0.00;0.00;;;23.00;66.50;;;;;;4938959;29;20407;-73
2022/08/10 06:46:11;;;;;;;2.20;1.00;;;23.10;66.40;;;;;;4939914;29;20031;-73
2022/08/10 06:48:55;;;;;;;1.10;1.00;;;23.30;65.70;;;;;;4973936;28;20133;-74
2022/08/10 06:51:28;;;;;;;2.00;0.45;;;23.30;65.60;;;;;;4960479;28;20042;-73
2022/08/10 06:53:58;;;;;;;5.22;0.80;;;23.30;65.50;;;;;;4975782;28;20027;-73
2022/08/10 06:56:27;;;;;;;0.28;0.20;;;23.40;66.50;;;;;;4955372;28;20027;-72
2022/08/10 06:59:02;;;;;;;0.35;0.35;;;23.50;65.60;;;;;;4965494;28;20110;-73
2022/08/10 07:01:40;;;;;;;0.30;0.30;;;23.60;64.60;;;;;;4951249;28;20498;-73
2022/08/10 07:04:26;;;;;;;0.10;0.10;;;23.60;64.70;;;;;;4958350;28;20427;-74
2022/08/10 07:06:53;;;;;;;0.03;0.03;;;23.70;64.60;;;;;;4958568;28;20026;-74
2022/08/10 07:09:21;;;;;;;2.08;0.80;;;23.80;64.70;;;;;;4957158;28;20475;-75
2022/08/10 07:11:49;;;;;;;0.00;0.00;;;23.90;64.60;;;;;;4958004;28;20042;-75
2022/08/10 07:14:17;;;;;;;0.00;0.00;;;24.00;64.40;;;;;;4938236;29;20094;-74
2022/08/10 07:16:46;;;;;;;0.45;0.10;;;24.10;64.20;;;;;;4940602;28;20126;-74
2022/08/10 07:19:14;;;;;;;0.60;0.43;;;24.20;64.40;;;;;;4957492;28;20035;-75
2022/08/10 07:21:43;;;;;;;0.32;0.20;;;24.30;63.90;;;;;;4973941;28;20031;-74
2022/08/10 07:24:12;;;;;;;0.20;0.17;;;24.50;64.00;;;;;;4957735;28;20027;-74
2022/08/10 07:26:47;;;;;;;0.00;0.00;;;24.70;63.20;;;;;;4958121;28;20026;-74
2022/08/10 07:29:17;;;;;;;0.00;0.00;;;24.80;62.70;;;;;;4957602;28;20023;-75
2022/08/10 07:31:43;;;;;;;0.00;0.00;;;24.90;62.50;;;;;;4957642;28;20090;-75
2022/08/10 07:34:13;;;;;;;0.10;0.10;;;25.00;62.10;;;;;;4973615;28;20031;-75
2022/08/10 07:36:41;;;;;;;0.25;0.25;;;25.10;61.70;;;;;;4957889;28;20070;-75
2022/08/10 07:39:11;;;;;;;2.78;1.23;;;25.30;61.50;;;;;;4957526;28;20026;-76
2022/08/10 07:41:41;;;;;;;0.05;0.00;;;25.50;60.50;;;;;;4957666;28;20023;-76
2022/08/10 07:44:11;;;;;;;0.00;0.00;;;25.60;60.40;;;;;;4957553;28;20023;-76
2022/08/10 07:46:48;;;;;;;0.07;0.07;;;25.70;60.20;;;;;;4956438;28;20035;-76
2022/08/10 07:49:20;;;;;;;0.00;0.00;;;25.70;59.60;;;;;;4955079;28;20105;-75
2022/08/10 07:51:52;;;;;;;0.25;0.13;;;25.70;59.50;;;;;;4953456;28;20122;-76
2022/08/10 07:54:21;;;;;;;0.05;0.05;;;25.80;59.30;;;;;;4938293;29;20511;-75
2022/08/10 07:56:50;;;;;;;0.00;0.00;;;25.80;59.60;;;;;;4939097;28;20130;-78
2022/08/10 07:59:25;;;;;;;0.03;0.00;;;25.90;59.00;;;;;;4956563;28;20035;-75
2022/08/10 08:01:54;;;;;;;0.10;0.10;;;26.00;58.60;;;;;;4957695;28;20098;-75
2022/08/10 08:04:22;;;;;;;0.38;0.10;;;26.10;58.60;;;;;;4940665;28;20038;-75
2022/08/10 08:06:50;;;;;;;0.20;0.13;;;26.10;58.60;;;;;;4941462;28;20027;-75
2022/08/10 08:09:20;;;;;;;0.63;0.30;;;26.30;58.60;;;;;;4956246;28;20069;-75
2022/08/10 08:11:48;;;;;;;0.10;0.00;;;26.30;58.50;;;;;;4973826;28;20027;-75
2022/08/10 08:14:15;;;;;;;0.00;0.00;;;26.30;58.20;;;;;;4944780;29;20455;-76
2022/08/10 08:16:46;;;;;;;0.10;0.10;;;26.30;58.60;;;;;;4938646;28;20034;-76
2022/08/10 08:19:13;;;;;;;0.00;0.00;;;26.40;58.50;;;;;;4956047;28;20093;-75
2022/08/10 08:21:41;;;;;;;0.63;0.30;;;26.50;58.30;;;;;;4956144;28;20039;-75
2022/08/10 08:24:07;;;;;;;2.63;0.20;;;26.80;58.30;;;;;;4956301;28;20121;-74
2022/08/10 08:26:36;;;;;;;0.05;0.05;;;26.80;57.50;;;;;;4956982;28;20019;-75
2022/08/10 08:29:03;;;;;;;0.00;0.00;;;26.80;56.90;;;;;;4939913;28;20026;-75
2022/08/10 08:31:29;;;;;;;0.57;0.43;;;26.70;56.80;;;;;;4973776;28;20073;-75
2022/08/10 08:33:58;;;;;;;0.00;0.00;;;26.80;57.20;;;;;;4955617;28;20031;-75
2022/08/10 08:36:25;;;;;;;0.10;0.10;;;26.90;57.20;;;;;;4956322;28;20026;-75
2022/08/10 08:38:51;;;;;;;0.17;0.17;;;26.80;57.10;;;;;;4955758;28;20110;-74
2022/08/10 08:41:36;;;;;;;0.52;0.15;;;26.80;57.20;;;;;;4956448;28;20023;-74
2022/08/10 08:44:35;;;;;;;0.00;0.00;;;26.90;57.30;;;;;;4973559;28;20031;-74
2022/08/10 08:47:30;;;;;;;0.10;0.10;;;27.10;56.80;;;;;;4972916;28;20037;-75
2022/08/10 08:50:37;;;;;;;0.00;0.00;;;27.20;56.30;;;;;;4972293;28;20027;-75
2022/08/10 08:53:24;;;;;;;0.00;0.00;;;27.20;55.40;;;;;;4972382;28;20495;-75
2022/08/10 08:56:20;;;;;;;0.10;0.10;;;27.40;55.50;;;;;;4973686;28;20042;-74
2022/08/10 08:58:49;;;;;;;0.98;0.68;;;27.50;55.80;;;;;;4957130;28;20041;-75
2022/08/10 09:01:26;;;;;;;0.65;0.43;;;27.40;55.50;;;;;;4972723;28;20081;-75
2022/08/10 09:04:20;;;;;;;2.05;0.52;;;27.50;55.60;;;;;;4972272;28;20037;-74
2022/08/10 09:07:07;;;;;;;0.38;0.32;;;27.40;55.50;;;;;;4973534;28;20031;-74
2022/08/10 09:10:20;;;;;;;0.20;0.20;;;27.70;55.80;;;;;;4972642;28;20058;-74
2022/08/10 09:13:29;;;;;;;10.23;0.93;;;27.90;55.20;;;;;;4927230;28;20039;-75
2022/08/10 09:16:34;;;;;;;0.15;0.15;;;27.90;55.00;;;;;;4973374;28;20078;-75
2022/08/10 09:19:12;;;;;;;1.30;0.57;;;27.90;55.50;;;;;;4918250;29;20089;-75
2022/08/10 09:22:20;;;;;;;0.03;0.03;;;28.10;54.80;;;;;;4918002;29;20031;-76
2022/08/10 09:25:07;;;;;;;0.00;0.00;;;28.30;53.90;;;;;;4961553;28;20049;-75
2022/08/10 09:27:59;;;;;;;1.45;0.93;;;28.50;54.10;;;;;;4972851;28;20101;-75
2022/08/10 09:30:33;;;;;;;0.13;0.13;;;28.70;53.50;;;;;;4941813;28;20455;-75
2022/08/10 09:33:45;;;;;;;0.10;0.10;;;28.70;53.10;;;;;;4955220;28;20026;-75
2022/08/10 09:36:32;;;;;;;1.58;0.85;;;28.80;53.10;;;;;;4957382;28;20045;-74
2022/08/10 09:39:15;;;;;;;0.30;0.20;;;28.90;52.30;;;;;;4954199;28;20026;-74
2022/08/10 09:41:56;;;;;;;0.20;0.20;;;29.00;52.10;;;;;;4956243;28;20035;-75
2022/08/10 09:44:27;;;;;;;0.05;0.05;;;28.90;51.80;;;;;;4968036;28;20106;-75
2022/08/10 09:47:33;;;;;;;0.10;0.10;;;29.10;52.10;;;;;;4920870;29;20062;-75
2022/08/10 09:50:22;;;;;;;0.00;0.00;;;29.30;51.30;;;;;;4969917;28;20039;-72
2022/08/10 09:53:29;;;;;;;0.00;0.00;;;29.30;50.50;;;;;;4955351;28;20376;-79
2022/08/10 09:56:35;;;;;;;0.55;0.55;;;29.20;51.20;;;;;;4937900;29;20039;-75
2022/08/10 09:59:46;;;;;;;0.10;0.10;;;29.30;51.10;;;;;;4937436;29;20035;-75
2022/08/10 10:03:00;;;;;;;0.22;0.22;;;29.40;51.30;;;;;;4954048;28;20101;-74
2022/08/10 10:06:04;;;;;;;0.40;0.40;;;29.40;50.80;;;;;;4971972;28;20109;-76
2022/08/10 10:08:47;;;;;;;3.83;0.35;;;29.80;51.00;;;;;;4925494;28;20410;-76
2022/08/10 10:11:26;;;;;;;0.10;0.00;;;29.80;51.00;;;;;;4936519;29;20030;-75
2022/08/10 10:15:19;;;;;;;0.43;0.43;;;29.80;50.70;;;;;;4963829;28;20026;-78
2022/08/10 10:18:26;;;;;;;0.80;0.40;;;29.80;49.90;;;;;;4950500;29;20391;-77
2022/08/10 10:21:19;;;;;;;1.75;0.43;;;29.80;49.30;;;;;;4932737;29;20032;-76
2022/08/10 10:24:38;;;;;;;0.00;0.00;;;30.00;50.00;;;;;;4958244;28;20047;-76
2022/08/10 10:27:49;;;;;;;0.10;0.10;;;29.90;50.50;;;;;;4945068;28;20431;-76
2022/08/10 10:30:18;;;;;;;2.95;1.02;;;30.10;50.00;;;;;;4861604;29;20084;-75
2022/08/10 10:33:13;;;;;;;18.98;0.43;;;30.10;50.10;;;;;;4863900;29;20051;-75
2022/08/10 10:35:54;;;;;;;0.20;0.20;;;30.30;49.70;;;;;;4942527;28;20058;-74
2022/08/10 10:38:35;;;;;;;0.20;0.20;;;30.40;49.30;;;;;;4934405;28;20066;-75
2022/08/10 10:41:15;;;;;;;21.13;0.45;;;30.30;49.00;;;;;;4933331;28;20035;-74
2022/08/10 10:43:50;;;;;;;1.88;0.47;;;30.10;49.20;;;;;;4953031;28;20031;-74
2022/08/10 10:46:40;;;;;;;0.82;0.52;;;30.00;49.30;;;;;;4935479;29;20027;-74
2022/08/10 10:49:41;;;;;;;0.20;0.20;;;29.90;49.50;;;;;;4928176;28;20126;-74
2022/08/10 10:52:45;;;;;;;0.20;0.20;;;30.10;48.80;;;;;;4953521;28;20076;-74
2022/08/10 10:55:24;;;;;;;0.08;0.05;;;30.10;49.00;;;;;;4907296;29;20062;-75
2022/08/10 10:58:22;;;;;;;0.10;0.10;;;30.20;49.20;;;;;;4959485;28;20027;-75
2022/08/10 11:00:58;;;;;;;0.10;0.10;;;30.70;48.40;;;;;;4931829;29;20028;-75
2022/08/10 11:03:52;;;;;;;0.20;0.20;;;30.50;48.20;;;;;;4915663;29;20506;-74
2022/08/10 11:06:37;;;;;;;0.00;0.00;;;30.80;48.10;;;;;;4933320;29;20031;-72
2022/08/10 11:09:12;;;;;;;0.45;0.30;;;30.70;47.80;;;;;;4944379;28;20508;-72
2022/08/10 11:11:42;;;;;;;0.20;0.20;;;30.80;48.10;;;;;;4951855;28;20122;-72
2022/08/10 11:14:29;;;;;;;0.00;0.00;;;30.80;48.10;;;;;;4941118;28;20562;-71
2022/08/10 11:17:21;;;;;;;1.83;0.22;;;30.90;48.20;;;;;;4951911;28;20467;-71
2022/08/10 11:20:16;;;;;;;1.65;0.22;;;30.70;48.10;;;;;;4965710;28;20149;-72
2022/08/10 11:23:40;;;;;;;0.10;0.10;;;30.30;48.60;;;;;;4956634;28;20075;-73
2022/08/10 11:26:12;;;;;;;0.00;0.00;;;30.50;48.50;;;;;;4970721;28;20038;-73
2022/08/10 11:29:12;;;;;;;1.27;0.30;;;30.60;48.70;;;;;;4954160;28;20035;-73
2022/08/10 11:32:01;;;;;;;;;;;31.10;48.60;;;;;;4958770;28;20066;-73
2022/08/10 11:34:40;;;;;;;5.22;1.30;;;30.90;48.40;;;;;;4932323;28;19917;-72
2022/08/10 11:37:27;;;;;;;0.15;0.13;;;31.40;48.30;;;;;;4940040;28;20094;-72
2022/08/10 11:40:04;;;;;;;0.10;0.10;;;31.80;48.10;;;;;;4944327;28;20542;-72
2022/08/10 11:43:03;;;;;;;0.30;0.10;;;31.60;47.60;;;;;;4955103;28;20031;-72
2022/08/10 11:45:34;;;;;;;0.00;0.00;;;31.50;48.20;;;;;;4939130;29;20023;-73
2022/08/10 11:48:15;;;;;;;1.60;0.60;;;31.00;47.70;;;;;;4945905;28;20054;-73
2022/08/10 11:50:57;;;;;;;0.32;0.32;;;31.00;47.60;;;;;;4955160;28;20102;-73
2022/08/10 11:53:35;;;;;;;0.20;0.20;;;31.10;48.00;;;;;;4949783;29;20039;-74
2022/08/10 11:56:01;;;;;;;0.10;0.10;;;31.70;47.10;;;;;;4967410;28;20047;-72
2022/08/10 12:01:32;;;;;;;1.48;0.10;;;32.30;46.60;;;;;;4948236;28;20129;-72
2022/08/10 12:04:06;;;;;;;0.10;0.10;;;32.50;46.30;;;;;;4943081;28;20657;-72
2022/08/10 12:06:35;;;;;;;0.10;0.10;;;32.70;46.50;;;;;;4943554;28;20039;-72
2022/08/10 12:09:04;;;;;;;0.08;0.08;;;32.70;46.60;;;;;;4952948;28;20395;-72
2022/08/10 12:11:30;;;;;;;0.00;0.00;;;33.00;46.70;;;;;;4944406;29;20110;-72
2022/08/10 12:14:29;;;;;;;0.00;0.00;;;32.80;46.30;;;;;;4970134;28;20019;-72
2022/08/10 12:17:39;;;;;;;0.73;0.35;;;32.90;46.30;;;;;;4966349;28;20538;-73
2022/08/10 12:20:16;;;;;;;6.50;2.10;;;33.30;45.80;;;;;;4944928;28;20039;-72
2022/08/10 12:22:55;;;;;;;0.10;0.10;;;33.40;45.60;;;;;;4950573;29;20042;-72
2022/08/10 12:25:34;;;;;;;0.10;0.03;;;33.50;45.80;;;;;;4924513;28;20035;-72
2022/08/10 12:28:27;;;;;;;0.17;0.13;;;33.80;45.10;;;;;;4951391;28;20309;-72
2022/08/10 12:30:58;;;;;;;0.20;0.20;;;33.40;45.60;;;;;;4944324;28;20034;-72
2022/08/10 12:33:47;;;;;;;0.00;0.00;;;33.20;45.90;;;;;;4944561;29;20086;-72
2022/08/10 12:36:25;;;;;;;0.38;0.30;;;33.10;46.00;;;;;;4928619;28;20118;-72
2022/08/10 12:39:28;;;;;;;0.00;0.00;;;32.50;46.20;;;;;;4940131;28;20031;-73
2022/08/10 12:42:10;;;;;;;0.32;0.20;;;32.90;46.00;;;;;;4940776;28;20039;-72
2022/08/10 12:45:31;;;;;;;0.38;0.38;;;33.00;46.20;;;;;;4957863;28;20396;-72
2022/08/10 12:48:28;;;;;;;0.10;0.10;;;33.20;45.50;;;;;;4947339;28;20078;-72
2022/08/10 12:51:13;;;;;;;0.00;0.00;;;33.20;45.40;;;;;;4943717;28;20058;-73
2022/08/10 12:54:15;;;;;;;0.00;0.00;;;33.80;46.50;;;;;;4944227;29;20035;-71
2022/08/10 12:57:08;;;;;;;0.38;0.15;;;34.00;45.50;;;;;;4946668;28;20440;-72
2022/08/10 12:59:42;;;;;;;0.10;0.10;;;33.90;45.40;;;;;;4974167;28;20038;-72
2022/08/10 13:02:13;;;;;;;0.65;0.60;;;34.40;44.90;;;;;;4967898;28;20026;-72
2022/08/10 13:04:41;;;;;;;0.10;0.10;;;33.30;44.80;;;;;;4959050;28;20029;-72
2022/08/10 13:07:09;;;;;;;0.47;0.32;;;33.10;44.90;;;;;;4942848;28;20027;-72
2022/08/10 13:09:36;;;;;;;0.32;0.25;;;33.10;44.70;;;;;;4949116;28;20042;-72
2022/08/10 13:12:10;;;;;;;0.08;0.08;;;33.60;44.80;;;;;;4940707;28;20039;-72
2022/08/10 13:14:49;;;;;;;0.10;0.10;;;33.30;44.80;;;;;;4956132;28;20035;-72
2022/08/10 13:17:29;;;;;;;0.22;0.10;;;33.90;44.20;;;;;;4922321;28;20449;-71
2022/08/10 13:19:58;;;;;;;0.13;0.10;;;33.60;44.10;;;;;;4947735;28;20038;-72
2022/08/10 13:22:29;;;;;;;0.40;0.15;;;33.40;44.70;;;;;;4954134;28;20045;-74
2022/08/10 13:25:00;;;;;;;0.55;0.47;;;33.90;45.20;;;;;;4947827;29;20031;-72
2022/08/10 13:27:40;;;;;;;0.22;0.15;;;34.80;44.40;;;;;;4964977;28;20520;-73
2022/08/10 13:30:07;;;;;;;0.03;0.03;;;35.40;43.60;;;;;;4945795;28;20461;-72
2022/08/10 13:32:36;;;;;;;0.10;0.10;;;34.10;43.80;;;;;;4960157;28;20023;-73
2022/08/10 13:35:09;;;;;;;3.10;0.70;;;34.70;44.30;;;;;;4946761;28;20087;-73
2022/08/10 13:37:41;;;;;;;0.43;0.32;;;35.30;43.80;;;;;;4943198;28;20035;-72
2022/08/10 13:40:13;;;;;;;0.20;0.20;;;36.00;42.50;;;;;;4946867;28;20388;-73